sensor_id;sensor_type;location;lat;lon;timestamp;pressure;altitude;pressure_sealevel;temperature
70969;BMP280;58630;43.022;25.100;2023-09-19T10:03:02;;;;21.90
70969;BMP280;58630;43.022;25.100;2023-09-19T10:05:29;;;;22.00
70969;BMP280;58630;43.022;25.100;2023-09-19T10:08:11;;;;22.00
70969;BMP280;58630;43.022;25.100;2023-09-19T10:10:44;;;;22.00
70969;BMP280;58630;43.022;25.100;2023-09-19T10:13:19;;;;22.00
70969;BMP280;58630;43.022;25.100;2023-09-19T10:15:49;;;;22.00
70969;BMP280;58630;43.022;25.100;2023-09-19T10:18:26;;;;22.10
70969;BMP280;58630;43.022;25.100;2023-09-19T10:20:53;;;;22.10
70969;BMP280;58630;43.022;25.100;2023-09-19T10:23:19;;;;22.10
70969;BMP280;58630;43.022;25.100;2023-09-19T10:25:48;;;;22.10
70969;BMP280;58630;43.022;25.100;2023-09-19T10:28:15;;;;22.10
70969;BMP280;58630;43.022;25.100;2023-09-19T10:30:44;;;;22.10
70969;BMP280;58630;43.022;25.100;2023-09-19T10:33:13;;;;22.20
70969;BMP280;58630;43.022;25.100;2023-09-19T10:35:39;;;;22.20
70969;BMP280;58630;43.022;25.100;2023-09-19T10:38:06;;;;22.20
70969;BMP280;58630;43.022;25.100;2023-09-19T10:40:32;;;;22.20
70969;BMP280;58630;43.022;25.100;2023-09-19T10:43:02;;;;22.30
70969;BMP280;58630;43.022;25.100;2023-09-19T10:45:34;;;;22.30
70969;BMP280;58630;43.022;25.100;2023-09-19T10:48:00;;;;22.40
70969;BMP280;58630;43.022;25.100;2023-09-19T10:50:36;;;;22.40
70969;BMP280;58630;43.022;25.100;2023-09-19T10:53:07;;;;22.50
70969;BMP280;58630;43.022;25.100;2023-09-19T10:55:33;;;;22.50
70969;BMP280;58630;43.022;25.100;2023-09-19T10:58:00;;;;22.60
70969;BMP280;58630;43.022;25.100;2023-09-19T11:00:26;;;;22.60
70969;BMP280;58630;43.022;25.100;2023-09-19T11:06:09;;;;22.70
70969;BMP280;58630;43.022;25.100;2023-09-19T11:11:41;;;;22.80
70969;BMP280;58630;43.022;25.100;2023-09-19T11:22:14;;;;23.00
70969;BMP280;58630;43.022;25.100;2023-09-19T11:24:39;;;;23.00
70969;BMP280;58630;43.022;25.100;2023-09-19T11:27:14;;;;23.00
70969;BMP280;58630;43.022;25.100;2023-09-19T11:29:42;;;;23.00
70969;BMP280;58630;43.022;25.100;2023-09-19T11:32:08;;;;23.10
70969;BMP280;58630;43.022;25.100;2023-09-19T11:34:44;;;;23.10
70969;BMP280;58630;43.022;25.100;2023-09-19T11:45:06;;;;23.20
70969;BMP280;58630;43.022;25.100;2023-09-19T11:47:32;;;;23.30
70969;BMP280;58630;43.022;25.100;2023-09-19T11:50:01;;;;23.40
70969;BMP280;58630;43.022;25.100;2023-09-19T11:52:27;;;;23.40
70969;BMP280;58630;43.022;25.100;2023-09-19T11:54:57;;;;23.40
70969;BMP280;58630;43.022;25.100;2023-09-19T11:57:25;;;;23.60
70969;BMP280;58630;43.022;25.100;2023-09-19T11:59:51;;;;23.60
70969;BMP280;58630;43.022;25.100;2023-09-19T12:02:31;;;;23.70
70969;BMP280;58630;43.022;25.100;2023-09-19T12:05:01;;;;23.70
70969;BMP280;58630;43.022;25.100;2023-09-19T12:07:26;;;;23.80
70969;BMP280;58630;43.022;25.100;2023-09-19T12:10:02;;;;23.80
70969;BMP280;58630;43.022;25.100;2023-09-19T12:12:28;;;;24.00
70969;BMP280;58630;43.022;25.100;2023-09-19T12:14:56;;;;24.20
70969;BMP280;58630;43.022;25.100;2023-09-19T12:17:37;;;;24.20
70969;BMP280;58630;43.022;25.100;2023-09-19T12:20:03;;;;24.20
70969;BMP280;58630;43.022;25.100;2023-09-19T12:22:41;;;;24.40
70969;BMP280;58630;43.022;25.100;2023-09-19T12:25:09;;;;24.50
70969;BMP280;58630;43.022;25.100;2023-09-19T12:27:42;;;;24.50
70969;BMP280;58630;43.022;25.100;2023-09-19T12:30:09;;;;24.70
70969;BMP280;58630;43.022;25.100;2023-09-19T12:32:35;;;;24.80
70969;BMP280;58630;43.022;25.100;2023-09-19T12:35:01;;;;24.90
70969;BMP280;58630;43.022;25.100;2023-09-19T12:37:32;;;;25.10
70969;BMP280;58630;43.022;25.100;2023-09-19T12:40:07;;;;25.00
70969;BMP280;58630;43.022;25.100;2023-09-19T12:42:46;;;;25.00
70969;BMP280;58630;43.022;25.100;2023-09-19T12:45:12;;;;25.10
70969;BMP280;58630;43.022;25.100;2023-09-19T12:47:40;;;;25.20
70969;BMP280;58630;43.022;25.100;2023-09-19T12:50:12;;;;25.20
70969;BMP280;58630;43.022;25.100;2023-09-19T12:52:41;;;;25.10
70969;BMP280;58630;43.022;25.100;2023-09-19T12:55:07;;;;25.10
70969;BMP280;58630;43.022;25.100;2023-09-19T12:57:34;;;;25.10
70969;BMP280;58630;43.022;25.100;2023-09-19T13:00:04;;;;25.10
70969;BMP280;58630;43.022;25.100;2023-09-19T13:02:36;;;;25.20
70969;BMP280;58630;43.022;25.100;2023-09-19T13:05:02;;;;25.20
70969;BMP280;58630;43.022;25.100;2023-09-19T13:07:44;;;;25.10
70969;BMP280;58630;43.022;25.100;2023-09-19T13:10:11;;;;25.00
70969;BMP280;58630;43.022;25.100;2023-09-19T13:12:40;;;;25.00
70969;BMP280;58630;43.022;25.100;2023-09-19T13:15:11;;;;25.10
70969;BMP280;58630;43.022;25.100;2023-09-19T13:17:45;;;;25.30
70969;BMP280;58630;43.022;25.100;2023-09-19T13:20:24;;;;25.40
70969;BMP280;58630;43.022;25.100;2023-09-19T13:22:55;;;;25.60
70969;BMP280;58630;43.022;25.100;2023-09-19T13:25:25;;;;25.80
70969;BMP280;58630;43.022;25.100;2023-09-19T13:27:52;;;;26.00
70969;BMP280;58630;43.022;25.100;2023-09-19T13:30:19;;;;26.20
70969;BMP280;58630;43.022;25.100;2023-09-19T13:32:45;;;;26.50
70969;BMP280;58630;43.022;25.100;2023-09-19T13:35:12;;;;26.80
70969;BMP280;58630;43.022;25.100;2023-09-19T13:37:38;;;;26.90
70969;BMP280;58630;43.022;25.100;2023-09-19T13:40:11;;;;26.80
70969;BMP280;58630;43.022;25.100;2023-09-19T13:42:37;;;;27.00
70969;BMP280;58630;43.022;25.100;2023-09-19T13:45:03;;;;27.20
70969;BMP280;58630;43.022;25.100;2023-09-19T13:47:30;;;;27.30
70969;BMP280;58630;43.022;25.100;2023-09-19T13:49:55;;;;27.50
70969;BMP280;58630;43.022;25.100;2023-09-19T13:52:21;;;;27.60
70969;BMP280;58630;43.022;25.100;2023-09-19T13:54:51;;;;27.60
70969;BMP280;58630;43.022;25.100;2023-09-19T13:57:18;;;;27.60
70969;BMP280;58630;43.022;25.100;2023-09-19T13:59:43;;;;27.60
70969;BMP280;58630;43.022;25.100;2023-09-19T14:02:09;;;;27.60
70969;BMP280;58630;43.022;25.100;2023-09-19T14:04:34;;;;27.50
70969;BMP280;58630;43.022;25.100;2023-09-19T14:07:01;;;;27.40
70969;BMP280;58630;43.022;25.100;2023-09-19T14:09:26;;;;27.30
70969;BMP280;58630;43.022;25.100;2023-09-19T14:11:52;;;;27.40
70969;BMP280;58630;43.022;25.100;2023-09-19T14:14:20;;;;27.40
70969;BMP280;58630;43.022;25.100;2023-09-19T14:16:47;;;;27.50
70969;BMP280;58630;43.022;25.100;2023-09-19T14:19:13;;;;27.40
70969;BMP280;58630;43.022;25.100;2023-09-19T14:21:40;;;;27.30
70969;BMP280;58630;43.022;25.100;2023-09-19T14:24:06;;;;27.10
70969;BMP280;58630;43.022;25.100;2023-09-19T14:26:41;;;;27.10
70969;BMP280;58630;43.022;25.100;2023-09-19T14:29:06;;;;27.00
70969;BMP280;58630;43.022;25.100;2023-09-19T14:31:37;;;;26.90
70969;BMP280;58630;43.022;25.100;2023-09-19T14:34:03;;;;26.90
70969;BMP280;58630;43.022;25.100;2023-09-19T14:36:29;;;;26.90
70969;BMP280;58630;43.022;25.100;2023-09-19T14:38:55;;;;26.90
70969;BMP280;58630;43.022;25.100;2023-09-19T14:41:21;;;;26.80
70969;BMP280;58630;43.022;25.100;2023-09-19T14:43:48;;;;26.80
70969;BMP280;58630;43.022;25.100;2023-09-19T14:46:14;;;;26.80
70969;BMP280;58630;43.022;25.100;2023-09-19T14:48:39;;;;26.90
70969;BMP280;58630;43.022;25.100;2023-09-19T14:51:08;;;;26.80
70969;BMP280;58630;43.022;25.100;2023-09-19T14:53:34;;;;26.90
70969;BMP280;58630;43.022;25.100;2023-09-19T14:56:03;;;;26.90
70969;BMP280;58630;43.022;25.100;2023-09-19T14:58:29;;;;26.80
70969;BMP280;58630;43.022;25.100;2023-09-19T15:01:08;;;;26.80
70969;BMP280;58630;43.022;25.100;2023-09-19T15:03:35;;;;26.80
70969;BMP280;58630;43.022;25.100;2023-09-19T15:06:05;;;;26.80
70969;BMP280;58630;43.022;25.100;2023-09-19T15:08:34;;;;26.80
70969;BMP280;58630;43.022;25.100;2023-09-19T15:13:01;;;;26.90
70969;BMP280;58630;43.022;25.100;2023-09-19T15:15:26;;;;26.90
70969;BMP280;58630;43.022;25.100;2023-09-19T15:17:52;;;;26.90
70969;BMP280;58630;43.022;25.100;2023-09-19T15:20:18;;;;26.90
70969;BMP280;58630;43.022;25.100;2023-09-19T15:22:44;;;;26.80
70969;BMP280;58630;43.022;25.100;2023-09-19T15:25:09;;;;26.90
70969;BMP280;58630;43.022;25.100;2023-09-19T15:27:35;;;;26.80
70969;BMP280;58630;43.022;25.100;2023-09-19T15:30:02;;;;26.80
70969;BMP280;58630;43.022;25.100;2023-09-19T15:32:30;;;;26.90
70969;BMP280;58630;43.022;25.100;2023-09-19T15:34:56;;;;26.80
70969;BMP280;58630;43.022;25.100;2023-09-19T15:37:21;;;;26.80
70969;BMP280;58630;43.022;25.100;2023-09-19T15:39:47;;;;26.80
70969;BMP280;58630;43.022;25.100;2023-09-19T15:42:13;;;;26.80
70969;BMP280;58630;43.022;25.100;2023-09-19T15:44:41;;;;26.80
70969;BMP280;58630;43.022;25.100;2023-09-19T15:47:08;;;;26.80
70969;BMP280;58630;43.022;25.100;2023-09-19T15:49:34;;;;26.80
70969;BMP280;58630;43.022;25.100;2023-09-19T15:52:00;;;;26.80
70969;BMP280;58630;43.022;25.100;2023-09-19T15:54:25;;;;26.80
70969;BMP280;58630;43.022;25.100;2023-09-19T15:56:53;;;;26.80
70969;BMP280;58630;43.022;25.100;2023-09-19T15:59:20;;;;26.80
70969;BMP280;58630;43.022;25.100;2023-09-19T16:01:45;;;;26.80
70969;BMP280;58630;43.022;25.100;2023-09-19T16:04:11;;;;26.80
70969;BMP280;58630;43.022;25.100;2023-09-19T16:06:37;;;;26.80
70969;BMP280;58630;43.022;25.100;2023-09-19T16:09:06;;;;26.80
70969;BMP280;58630;43.022;25.100;2023-09-19T16:11:33;;;;26.80
70969;BMP280;58630;43.022;25.100;2023-09-19T16:13:59;;;;26.80
70969;BMP280;58630;43.022;25.100;2023-09-19T16:16:26;;;;26.80
70969;BMP280;58630;43.022;25.100;2023-09-19T16:18:56;;;;26.70
70969;BMP280;58630;43.022;25.100;2023-09-19T16:21:26;;;;26.70
70969;BMP280;58630;43.022;25.100;2023-09-19T16:23:52;;;;26.70
70969;BMP280;58630;43.022;25.100;2023-09-19T16:26:21;;;;26.70
70969;BMP280;58630;43.022;25.100;2023-09-19T16:28:47;;;;26.70
70969;BMP280;58630;43.022;25.100;2023-09-19T16:31:13;;;;26.70
70969;BMP280;58630;43.022;25.100;2023-09-19T16:33:45;;;;26.70
70969;BMP280;58630;43.022;25.100;2023-09-19T16:36:11;;;;26.70
70969;BMP280;58630;43.022;25.100;2023-09-19T16:38:38;;;;26.70
70969;BMP280;58630;43.022;25.100;2023-09-19T16:41:04;;;;26.70
70969;BMP280;58630;43.022;25.100;2023-09-19T16:43:30;;;;26.70
70969;BMP280;58630;43.022;25.100;2023-09-19T16:46:03;;;;26.70
70969;BMP280;58630;43.022;25.100;2023-09-19T16:48:29;;;;26.70
70969;BMP280;58630;43.022;25.100;2023-09-19T16:50:58;;;;26.60
70969;BMP280;58630;43.022;25.100;2023-09-19T16:53:24;;;;26.60
70969;BMP280;58630;43.022;25.100;2023-09-19T16:55:50;;;;26.60
70969;BMP280;58630;43.022;25.100;2023-09-19T16:58:16;;;;26.60
70969;BMP280;58630;43.022;25.100;2023-09-19T17:00:42;;;;26.60
70969;BMP280;58630;43.022;25.100;2023-09-19T17:03:14;;;;26.60
70969;BMP280;58630;43.022;25.100;2023-09-19T17:05:40;;;;26.60
70969;BMP280;58630;43.022;25.100;2023-09-19T17:08:09;;;;26.60
70969;BMP280;58630;43.022;25.100;2023-09-19T17:10:35;;;;26.60
70969;BMP280;58630;43.022;25.100;2023-09-19T17:13:03;;;;26.50
70969;BMP280;58630;43.022;25.100;2023-09-19T17:15:33;;;;26.50
70969;BMP280;58630;43.022;25.100;2023-09-19T17:17:59;;;;26.50
70969;BMP280;58630;43.022;25.100;2023-09-19T17:20:28;;;;26.50
70969;BMP280;58630;43.022;25.100;2023-09-19T17:22:54;;;;26.50
70969;BMP280;58630;43.022;25.100;2023-09-19T17:25:19;;;;26.50
70969;BMP280;58630;43.022;25.100;2023-09-19T17:27:46;;;;26.40
70969;BMP280;58630;43.022;25.100;2023-09-19T17:30:12;;;;26.40
70969;BMP280;58630;43.022;25.100;2023-09-19T17:32:44;;;;26.40
70969;BMP280;58630;43.022;25.100;2023-09-19T17:35:11;;;;26.40
70969;BMP280;58630;43.022;25.100;2023-09-19T17:37:36;;;;26.40
70969;BMP280;58630;43.022;25.100;2023-09-19T17:40:07;;;;26.40
70969;BMP280;58630;43.022;25.100;2023-09-19T17:42:41;;;;26.30
70969;BMP280;58630;43.022;25.100;2023-09-19T17:45:08;;;;26.30
70969;BMP280;58630;43.022;25.100;2023-09-19T17:47:35;;;;26.30
70969;BMP280;58630;43.022;25.100;2023-09-19T17:50:02;;;;26.30
70969;BMP280;58630;43.022;25.100;2023-09-19T17:52:29;;;;26.30
70969;BMP280;58630;43.022;25.100;2023-09-19T17:54:54;;;;26.30
70969;BMP280;58630;43.022;25.100;2023-09-19T17:57:20;;;;26.20
70969;BMP280;58630;43.022;25.100;2023-09-19T17:59:47;;;;26.20
70969;BMP280;58630;43.022;25.100;2023-09-19T18:02:13;;;;26.20
70969;BMP280;58630;43.022;25.100;2023-09-19T18:04:38;;;;26.20
70969;BMP280;58630;43.022;25.100;2023-09-19T18:07:05;;;;26.20
70969;BMP280;58630;43.022;25.100;2023-09-19T18:09:31;;;;26.20
70969;BMP280;58630;43.022;25.100;2023-09-19T18:11:56;;;;26.20
70969;BMP280;58630;43.022;25.100;2023-09-19T18:14:22;;;;26.20
70969;BMP280;58630;43.022;25.100;2023-09-19T18:16:48;;;;26.10
70969;BMP280;58630;43.022;25.100;2023-09-19T18:19:14;;;;26.10
70969;BMP280;58630;43.022;25.100;2023-09-19T18:21:41;;;;26.10
70969;BMP280;58630;43.022;25.100;2023-09-19T18:24:11;;;;26.10
70969;BMP280;58630;43.022;25.100;2023-09-19T18:26:40;;;;26.10
70969;BMP280;58630;43.022;25.100;2023-09-19T18:29:05;;;;26.00
70969;BMP280;58630;43.022;25.100;2023-09-19T18:31:31;;;;26.10
70969;BMP280;58630;43.022;25.100;2023-09-19T18:33:59;;;;26.00
70969;BMP280;58630;43.022;25.100;2023-09-19T18:36:26;;;;26.00
70969;BMP280;58630;43.022;25.100;2023-09-19T18:38:55;;;;26.00
70969;BMP280;58630;43.022;25.100;2023-09-19T18:41:21;;;;26.00
70969;BMP280;58630;43.022;25.100;2023-09-19T18:43:46;;;;26.00
70969;BMP280;58630;43.022;25.100;2023-09-19T18:46:12;;;;26.00
70969;BMP280;58630;43.022;25.100;2023-09-19T18:48:38;;;;25.90
70969;BMP280;58630;43.022;25.100;2023-09-19T18:51:07;;;;25.90
70969;BMP280;58630;43.022;25.100;2023-09-19T18:53:36;;;;25.90
70969;BMP280;58630;43.022;25.100;2023-09-19T18:56:02;;;;25.90
70969;BMP280;58630;43.022;25.100;2023-09-19T18:58:28;;;;25.90
70969;BMP280;58630;43.022;25.100;2023-09-19T19:00:59;;;;25.90
70969;BMP280;58630;43.022;25.100;2023-09-19T19:03:25;;;;25.80
70969;BMP280;58630;43.022;25.100;2023-09-19T19:05:51;;;;25.80
70969;BMP280;58630;43.022;25.100;2023-09-19T19:08:17;;;;25.80
70969;BMP280;58630;43.022;25.100;2023-09-19T19:10:44;;;;25.80
70969;BMP280;58630;43.022;25.100;2023-09-19T19:13:09;;;;25.80
70969;BMP280;58630;43.022;25.100;2023-09-19T19:15:35;;;;25.70
70969;BMP280;58630;43.022;25.100;2023-09-19T19:18:00;;;;25.70
70969;BMP280;58630;43.022;25.100;2023-09-19T19:20:26;;;;25.70
70969;BMP280;58630;43.022;25.100;2023-09-19T19:22:52;;;;25.70
70969;BMP280;58630;43.022;25.100;2023-09-19T19:25:18;;;;25.70
70969;BMP280;58630;43.022;25.100;2023-09-19T19:27:44;;;;25.60
70969;BMP280;58630;43.022;25.100;2023-09-19T19:30:10;;;;25.60
70969;BMP280;58630;43.022;25.100;2023-09-19T19:32:37;;;;25.60
70969;BMP280;58630;43.022;25.100;2023-09-19T19:35:02;;;;25.60
70969;BMP280;58630;43.022;25.100;2023-09-19T19:37:30;;;;25.60
70969;BMP280;58630;43.022;25.100;2023-09-19T19:39:55;;;;25.50
70969;BMP280;58630;43.022;25.100;2023-09-19T19:42:21;;;;25.50
70969;BMP280;58630;43.022;25.100;2023-09-19T19:44:46;;;;25.50
70969;BMP280;58630;43.022;25.100;2023-09-19T19:47:19;;;;25.50
70969;BMP280;58630;43.022;25.100;2023-09-19T19:49:45;;;;25.50
70969;BMP280;58630;43.022;25.100;2023-09-19T19:52:12;;;;25.50
70969;BMP280;58630;43.022;25.100;2023-09-19T19:54:38;;;;25.40
70969;BMP280;58630;43.022;25.100;2023-09-19T19:57:04;;;;25.40
70969;BMP280;58630;43.022;25.100;2023-09-19T19:59:30;;;;25.40
70969;BMP280;58630;43.022;25.100;2023-09-19T20:01:56;;;;25.40
70969;BMP280;58630;43.022;25.100;2023-09-19T20:04:21;;;;25.40
70969;BMP280;58630;43.022;25.100;2023-09-19T20:06:47;;;;25.30
70969;BMP280;58630;43.022;25.100;2023-09-19T20:09:14;;;;25.30
70969;BMP280;58630;43.022;25.100;2023-09-19T20:11:40;;;;25.30
70969;BMP280;58630;43.022;25.100;2023-09-19T20:14:06;;;;25.30
70969;BMP280;58630;43.022;25.100;2023-09-19T20:16:34;;;;25.30
70969;BMP280;58630;43.022;25.100;2023-09-19T20:19:02;;;;25.20
70969;BMP280;58630;43.022;25.100;2023-09-19T20:21:30;;;;25.20
70969;BMP280;58630;43.022;25.100;2023-09-19T20:23:55;;;;25.20
70969;BMP280;58630;43.022;25.100;2023-09-19T20:26:21;;;;25.20
70969;BMP280;58630;43.022;25.100;2023-09-19T20:28:46;;;;25.20
70969;BMP280;58630;43.022;25.100;2023-09-19T20:31:12;;;;25.10
70969;BMP280;58630;43.022;25.100;2023-09-19T20:33:41;;;;25.10
70969;BMP280;58630;43.022;25.100;2023-09-19T20:36:07;;;;25.10
70969;BMP280;58630;43.022;25.100;2023-09-19T20:38:33;;;;25.10
70969;BMP280;58630;43.022;25.100;2023-09-19T20:40:59;;;;25.10
70969;BMP280;58630;43.022;25.100;2023-09-19T20:43:27;;;;25.00
70969;BMP280;58630;43.022;25.100;2023-09-19T20:45:53;;;;25.00
70969;BMP280;58630;43.022;25.100;2023-09-19T20:48:19;;;;25.00
70969;BMP280;58630;43.022;25.100;2023-09-19T20:50:44;;;;25.00
70969;BMP280;58630;43.022;25.100;2023-09-19T20:53:10;;;;24.90
70969;BMP280;58630;43.022;25.100;2023-09-19T20:55:36;;;;24.90
70969;BMP280;58630;43.022;25.100;2023-09-19T20:58:02;;;;24.90
70969;BMP280;58630;43.022;25.100;2023-09-19T21:00:28;;;;24.90
70969;BMP280;58630;43.022;25.100;2023-09-19T21:02:54;;;;24.80
70969;BMP280;58630;43.022;25.100;2023-09-19T21:05:21;;;;24.80
70969;BMP280;58630;43.022;25.100;2023-09-19T21:07:49;;;;24.80
70969;BMP280;58630;43.022;25.100;2023-09-19T21:10:16;;;;24.80
70969;BMP280;58630;43.022;25.100;2023-09-19T21:12:42;;;;24.70
70969;BMP280;58630;43.022;25.100;2023-09-19T21:15:07;;;;24.70
70969;BMP280;58630;43.022;25.100;2023-09-19T21:17:33;;;;24.70
70969;BMP280;58630;43.022;25.100;2023-09-19T21:19:58;;;;24.70
70969;BMP280;58630;43.022;25.100;2023-09-19T21:22:24;;;;24.60
70969;BMP280;58630;43.022;25.100;2023-09-19T21:24:52;;;;24.60
70969;BMP280;58630;43.022;25.100;2023-09-19T21:27:19;;;;24.60
70969;BMP280;58630;43.022;25.100;2023-09-19T21:29:45;;;;24.60
70969;BMP280;58630;43.022;25.100;2023-09-19T21:32:10;;;;24.60
70969;BMP280;58630;43.022;25.100;2023-09-19T21:34:36;;;;24.60
70969;BMP280;58630;43.022;25.100;2023-09-19T21:37:02;;;;24.50
70969;BMP280;58630;43.022;25.100;2023-09-19T21:39:28;;;;24.50
70969;BMP280;58630;43.022;25.100;2023-09-19T21:41:54;;;;24.50
70969;BMP280;58630;43.022;25.100;2023-09-19T21:44:19;;;;24.50
70969;BMP280;58630;43.022;25.100;2023-09-19T21:46:45;;;;24.40
70969;BMP280;58630;43.022;25.100;2023-09-19T21:49:10;;;;24.40
70969;BMP280;58630;43.022;25.100;2023-09-19T21:51:37;;;;24.40
70969;BMP280;58630;43.022;25.100;2023-09-19T21:54:03;;;;24.40
70969;BMP280;58630;43.022;25.100;2023-09-19T21:56:29;;;;24.40
70969;BMP280;58630;43.022;25.100;2023-09-19T21:58:55;;;;24.30
70969;BMP280;58630;43.022;25.100;2023-09-19T22:01:20;;;;24.30
70969;BMP280;58630;43.022;25.100;2023-09-19T22:03:53;;;;24.30
70969;BMP280;58630;43.022;25.100;2023-09-19T22:06:19;;;;24.30
70969;BMP280;58630;43.022;25.100;2023-09-19T22:08:46;;;;24.20
70969;BMP280;58630;43.022;25.100;2023-09-19T22:11:15;;;;24.20
70969;BMP280;58630;43.022;25.100;2023-09-19T22:13:41;;;;24.20
70969;BMP280;58630;43.022;25.100;2023-09-19T22:16:08;;;;24.20
70969;BMP280;58630;43.022;25.100;2023-09-19T22:18:34;;;;24.10
70969;BMP280;58630;43.022;25.100;2023-09-19T22:21:00;;;;24.10
70969;BMP280;58630;43.022;25.100;2023-09-19T22:23:32;;;;24.10
70969;BMP280;58630;43.022;25.100;2023-09-19T22:26:03;;;;24.10
70969;BMP280;58630;43.022;25.100;2023-09-19T22:28:33;;;;24.10
70969;BMP280;58630;43.022;25.100;2023-09-19T22:31:02;;;;24.10
70969;BMP280;58630;43.022;25.100;2023-09-19T22:33:28;;;;24.10
70969;BMP280;58630;43.022;25.100;2023-09-19T22:35:53;;;;24.00
70969;BMP280;58630;43.022;25.100;2023-09-19T22:38:21;;;;24.00
70969;BMP280;58630;43.022;25.100;2023-09-19T22:40:48;;;;24.00
70969;BMP280;58630;43.022;25.100;2023-09-19T22:43:19;;;;24.00
70969;BMP280;58630;43.022;25.100;2023-09-19T22:45:47;;;;24.00
70969;BMP280;58630;43.022;25.100;2023-09-19T22:48:13;;;;24.00
70969;BMP280;58630;43.022;25.100;2023-09-19T22:50:40;;;;23.90
70969;BMP280;58630;43.022;25.100;2023-09-19T22:53:10;;;;23.90
70969;BMP280;58630;43.022;25.100;2023-09-19T22:55:40;;;;23.90
70969;BMP280;58630;43.022;25.100;2023-09-19T22:58:06;;;;23.90
70969;BMP280;58630;43.022;25.100;2023-09-19T23:00:36;;;;23.90
70969;BMP280;58630;43.022;25.100;2023-09-19T23:03:01;;;;23.90
70969;BMP280;58630;43.022;25.100;2023-09-19T23:05:34;;;;23.90
70969;BMP280;58630;43.022;25.100;2023-09-19T23:08:03;;;;23.80
70969;BMP280;58630;43.022;25.100;2023-09-19T23:10:29;;;;23.80
70969;BMP280;58630;43.022;25.100;2023-09-19T23:12:55;;;;23.80
70969;BMP280;58630;43.022;25.100;2023-09-19T23:15:21;;;;23.80
70969;BMP280;58630;43.022;25.100;2023-09-19T23:17:52;;;;23.80
70969;BMP280;58630;43.022;25.100;2023-09-19T23:20:18;;;;23.70
70969;BMP280;58630;43.022;25.100;2023-09-19T23:22:44;;;;23.70
70969;BMP280;58630;43.022;25.100;2023-09-19T23:25:09;;;;23.70
70969;BMP280;58630;43.022;25.100;2023-09-19T23:27:43;;;;23.70
70969;BMP280;58630;43.022;25.100;2023-09-19T23:30:20;;;;23.70
70969;BMP280;58630;43.022;25.100;2023-09-19T23:32:48;;;;23.70
70969;BMP280;58630;43.022;25.100;2023-09-19T23:35:14;;;;23.70
70969;BMP280;58630;43.022;25.100;2023-09-19T23:37:43;;;;23.60
70969;BMP280;58630;43.022;25.100;2023-09-19T23:40:10;;;;23.60
70969;BMP280;58630;43.022;25.100;2023-09-19T23:42:36;;;;23.60
70969;BMP280;58630;43.022;25.100;2023-09-19T23:45:01;;;;23.60
70969;BMP280;58630;43.022;25.100;2023-09-19T23:47:27;;;;23.60
70969;BMP280;58630;43.022;25.100;2023-09-19T23:49:53;;;;23.60
70969;BMP280;58630;43.022;25.100;2023-09-19T23:52:19;;;;23.60
70969;BMP280;58630;43.022;25.100;2023-09-19T23:54:45;;;;23.60
70969;BMP280;58630;43.022;25.100;2023-09-19T23:57:12;;;;23.60
70969;BMP280;58630;43.022;25.100;2023-09-19T23:59:42;;;;23.50
